Time,TemperatureF,DewpointF,PressureIn,WindDirection,WindDirectionDegrees,WindSpeedMPH,WindSpeedGustMPH,Humidity,HourlyPrecipIn,Conditions,Clouds,dailyrainin,SoftwareType,DateUTC
2013-04-18 00:02:00,47.0,41.0,30.43,SE,125,0.0,1.0,81,0.00,,,0.00,,2013-04-18 07:02:00,
2013-04-18 00:12:00,46.0,41.0,30.43,WSW,253,6.0,9.0,83,0.00,,,0.00,,2013-04-18 07:12:00,
2013-04-18 00:22:00,46.0,41.0,30.43,WSW,253,6.0,9.0,83,0.00,,,0.00,,2013-04-18 07:22:00,
2013-04-18 00:32:00,46.0,41.0,30.43,WSW,253,6.0,9.0,83,0.00,,,0.00,,2013-04-18 07:32:00,
2013-04-18 00:42:00,45.0,40.0,30.44,WSW,238,6.0,8.0,81,0.00,,,0.00,,2013-04-18 07:42:00,
2013-04-18 00:52:00,45.0,40.0,30.44,WSW,238,6.0,8.0,81,0.00,,,0.00,,2013-04-18 07:52:00,
2013-04-18 01:02:00,45.0,40.0,30.44,WSW,238,6.0,8.0,81,0.00,,,0.00,,2013-04-18 08:02:00,
2013-04-18 01:12:00,44.0,39.0,30.45,WSW,255,8.0,11.0,82,0.00,,,0.00,,2013-04-18 08:12:00,
2013-04-18 01:22:00,44.0,39.0,30.45,WSW,255,8.0,11.0,82,0.00,,,0.00,,2013-04-18 08:22:00,
2013-04-18 01:32:00,44.0,39.0,30.45,WSW,255,8.0,11.0,82,0.00,,,0.00,,2013-04-18 08:32:00,
2013-04-18 01:42:00,43.0,38.0,30.44,SSW,205,9.0,13.0,83,0.00,,,0.00,,2013-04-18 08:42:00,
2013-04-18 01:52:00,43.0,38.0,30.44,SSW,205,9.0,13.0,83,0.00,,,0.00,,2013-04-18 08:52:00,
2013-04-18 02:01:00,43.0,38.0,30.44,SSW,205,9.0,13.0,83,0.00,,,0.00,,2013-04-18 09:01:00,
2013-04-18 02:12:00,43.0,38.0,30.45,WSW,248,4.0,9.0,84,0.00,,,0.00,,2013-04-18 09:12:00,
2013-04-18 02:22:00,43.0,38.0,30.45,WSW,248,4.0,9.0,84,0.00,,,0.00,,2013-04-18 09:22:00,
2013-04-18 02:32:00,43.0,38.0,30.45,WSW,248,4.0,9.0,84,0.00,,,0.00,,2013-04-18 09:32:00,
2013-04-18 02:43:00,43.0,38.0,30.45,SSW,204,3.0,8.0,84,0.00,,,0.00,,2013-04-18 09:43:00,
2013-04-18 02:53:00,43.0,38.0,30.45,SSW,204,3.0,8.0,84,0.00,,,0.00,,2013-04-18 09:53:00,
2013-04-18 03:02:00,43.0,38.0,30.45,SSW,204,3.0,8.0,84,0.00,,,0.00,,2013-04-18 10:02:00,
2013-04-18 03:12:00,43.0,38.0,30.45,SSW,204,3.0,8.0,84,0.00,,,0.00,,2013-04-18 10:12:00,
2013-04-18 03:22:00,43.0,38.0,30.44,SW,217,6.0,10.0,84,0.00,,,0.00,,2013-04-18 10:22:00,
2013-04-18 03:32:00,43.0,38.0,30.44,SW,217,6.0,10.0,84,0.00,,,0.00,,2013-04-18 10:32:00,
2013-04-18 03:42:00,43.0,38.0,30.44,SW,217,6.0,10.0,84,0.00,,,0.00,,2013-04-18 10:42:00,
2013-04-18 03:52:00,43.0,38.0,30.45,SSE,158,4.0,7.0,84,0.00,,,0.00,,2013-04-18 10:52:00,
2013-04-18 04:02:00,43.0,38.0,30.45,SSE,158,4.0,7.0,84,0.00,,,0.00,,2013-04-18 11:02:00,
2013-04-18 04:12:00,43.0,38.0,30.45,SE,143,4.0,8.0,83,0.00,,,0.00,,2013-04-18 11:12:00,
2013-04-18 04:22:00,43.0,38.0,30.45,SE,143,4.0,8.0,83,0.00,,,0.00,,2013-04-18 11:22:00,
2013-04-18 04:32:00,43.0,38.0,30.45,SE,143,4.0,8.0,83,0.00,,,0.00,,2013-04-18 11:32:00,
2013-04-18 04:42:00,43.0,38.0,30.45,SE,143,4.0,8.0,83,0.00,,,0.00,,2013-04-18 11:42:00,
2013-04-18 04:52:00,43.0,38.0,30.44,South,180,6.0,11.0,83,0.00,,,0.00,,2013-04-18 11:52:00,
2013-04-18 05:02:00,43.0,38.0,30.44,South,180,6.0,11.0,83,0.00,,,0.00,,2013-04-18 12:02:00,
2013-04-18 05:12:00,43.0,38.0,30.44,South,180,6.0,11.0,83,0.00,,,0.00,,2013-04-18 12:12:00,
2013-04-18 05:22:00,43.0,38.0,30.44,SSE,160,4.0,8.0,83,0.00,,,0.00,,2013-04-18 12:22:00,
2013-04-18 05:32:00,43.0,38.0,30.44,SSE,160,4.0,8.0,83,0.00,,,0.00,,2013-04-18 12:32:00,
2013-04-18 05:42:00,43.0,38.0,30.44,SSE,160,4.0,8.0,83,0.00,,,0.00,,2013-04-18 12:42:00,
2013-04-18 05:52:00,43.0,38.0,30.44,SE,139,4.0,9.0,84,0.00,,,0.00,,2013-04-18 12:52:00,
2013-04-18 06:02:00,43.0,38.0,30.44,SE,139,4.0,9.0,84,0.00,,,0.00,,2013-04-18 13:02:00,
2013-04-18 06:12:00,43.0,38.0,30.44,SE,139,4.0,9.0,84,0.00,,,0.00,,2013-04-18 13:12:00,
2013-04-18 06:22:00,44.0,40.0,30.44,SSW,200,3.0,7.0,85,0.00,,,0.00,,2013-04-18 13:22:00,
2013-04-18 06:32:00,44.0,40.0,30.44,SSW,200,3.0,7.0,85,0.00,,,0.00,,2013-04-18 13:32:00,
2013-04-18 06:42:00,44.0,40.0,30.44,SSW,205,4.0,9.0,85,0.00,,,0.00,,2013-04-18 13:42:00,
2013-04-18 06:52:00,44.0,40.0,30.44,SSW,205,4.0,9.0,85,0.00,,,0.00,,2013-04-18 13:52:00,
2013-04-18 07:02:00,44.0,40.0,30.44,SSW,205,4.0,9.0,85,0.00,,,0.00,,2013-04-18 14:02:00,
2013-04-18 07:12:00,44.0,40.0,30.44,SSW,193,3.0,7.0,86,0.00,,,0.00,,2013-04-18 14:12:00,
2013-04-18 07:22:00,44.0,40.0,30.44,SSW,193,3.0,7.0,86,0.00,,,0.00,,2013-04-18 14:22:00,
2013-04-18 07:32:00,44.0,40.0,30.44,SSW,193,3.0,7.0,86,0.00,,,0.00,,2013-04-18 14:32:00,
2013-04-18 07:43:00,44.0,40.0,30.44,SSW,193,3.0,7.0,86,0.00,,,0.00,,2013-04-18 14:43:00,
2013-04-18 07:52:00,44.0,40.0,30.44,South,173,4.0,9.0,86,0.00,,,0.00,,2013-04-18 14:52:00,
2013-04-18 08:02:00,44.0,40.0,30.44,South,173,4.0,9.0,86,0.00,,,0.00,,2013-04-18 15:02:00,
2013-04-18 08:12:00,44.0,40.0,30.44,South,173,4.0,9.0,86,0.00,,,0.00,,2013-04-18 15:12:00,
2013-04-18 08:22:00,44.0,40.0,30.45,SSW,205,5.0,9.0,86,0.00,,,0.00,,2013-04-18 15:22:00,
2013-04-18 08:33:00,44.0,40.0,30.45,SSW,205,5.0,9.0,86,0.00,,,0.00,,2013-04-18 15:33:00,
2013-04-18 08:43:00,44.0,40.0,30.45,SW,226,4.0,9.0,85,0.00,,,0.00,,2013-04-18 15:43:00,
2013-04-18 08:53:00,44.0,40.0,30.45,SW,226,4.0,9.0,85,0.00,,,0.00,,2013-04-18 15:53:00,
2013-04-18 09:03:00,44.0,40.0,30.45,SW,226,4.0,9.0,85,0.00,,,0.00,,2013-04-18 16:03:00,
2013-04-18 09:13:00,45.0,41.0,30.45,SSE,159,5.0,11.0,85,0.00,,,0.00,,2013-04-18 16:13:00,
2013-04-18 09:22:00,45.0,41.0,30.45,SSE,159,5.0,11.0,85,0.00,,,0.00,,2013-04-18 16:22:00,
2013-04-18 09:32:00,45.0,41.0,30.45,SSE,159,5.0,11.0,85,0.00,,,0.00,,2013-04-18 16:32:00,
2013-04-18 09:43:00,45.0,41.0,30.45,SSW,200,5.0,11.0,85,0.00,,,0.00,,2013-04-18 16:43:00,
2013-04-18 09:52:00,45.0,41.0,30.45,SSW,200,5.0,11.0,85,0.00,,,0.00,,2013-04-18 16:52:00,
2013-04-18 10:02:00,45.0,41.0,30.45,SSW,200,5.0,11.0,85,0.00,,,0.00,,2013-04-18 17:02:00,
2013-04-18 10:12:00,45.0,41.0,30.45,SSW,200,5.0,11.0,85,0.00,,,0.00,,2013-04-18 17:12:00,
2013-04-18 10:22:00,44.0,40.0,30.45,SSE,167,5.0,10.0,87,0.00,,,0.00,,2013-04-18 17:22:00,
2013-04-18 10:32:00,44.0,40.0,30.45,SSE,167,5.0,10.0,87,0.00,,,0.00,,2013-04-18 17:32:00,
2013-04-18 10:43:00,45.0,40.0,30.45,SSW,197,5.0,10.0,84,0.00,,,0.00,,2013-04-18 17:43:00,
2013-04-18 10:52:00,45.0,40.0,30.45,SSW,197,5.0,10.0,84,0.00,,,0.00,,2013-04-18 17:52:00,
2013-04-18 11:02:00,45.0,40.0,30.45,SSW,197,5.0,10.0,84,0.00,,,0.00,,2013-04-18 18:02:00,
2013-04-18 11:12:00,46.0,41.0,30.45,SE,127,4.0,13.0,84,0.00,,,0.00,,2013-04-18 18:12:00,
2013-04-18 11:22:00,46.0,41.0,30.45,SE,127,4.0,13.0,84,0.00,,,0.00,,2013-04-18 18:22:00,
2013-04-18 11:32:00,46.0,41.0,30.45,SE,127,4.0,13.0,84,0.00,,,0.00,,2013-04-18 18:32:00,
2013-04-18 11:43:00,46.0,41.0,30.45,SE,127,4.0,13.0,84,0.00,,,0.00,,2013-04-18 18:43:00,
2013-04-18 11:52:00,47.0,42.0,30.45,SSE,153,5.0,10.0,83,0.00,,,0.00,,2013-04-18 18:52:00,
2013-04-18 12:02:00,47.0,42.0,30.45,SSE,153,5.0,10.0,83,0.00,,,0.00,,2013-04-18 19:02:00,
2013-04-18 12:12:00,47.0,42.0,30.45,SSE,153,5.0,10.0,83,0.00,,,0.00,,2013-04-18 19:12:00,
2013-04-18 12:22:00,48.0,42.0,30.44,SSE,155,7.0,13.0,81,0.00,,,0.00,,2013-04-18 19:22:00,
2013-04-18 12:32:00,48.0,42.0,30.44,SSE,155,7.0,13.0,81,0.00,,,0.00,,2013-04-18 19:32:00,
2013-04-18 12:42:00,48.0,42.0,30.44,SSE,155,7.0,13.0,81,0.00,,,0.00,,2013-04-18 19:42:00,
2013-04-18 12:52:00,48.0,42.0,30.43,SSE,162,6.0,13.0,81,0.00,,,0.00,,2013-04-18 19:52:00,
2013-04-18 13:02:00,48.0,42.0,30.43,SSE,162,6.0,13.0,81,0.00,,,0.00,,2013-04-18 20:02:00,
2013-04-18 13:12:00,48.0,42.0,30.43,SSE,162,6.0,13.0,81,0.00,,,0.00,,2013-04-18 20:12:00,
2013-04-18 13:22:00,49.0,43.0,30.42,SW,224,6.0,11.0,80,0.00,,,0.00,,2013-04-18 20:22:00,
2013-04-18 13:32:00,49.0,43.0,30.42,SW,224,6.0,11.0,80,0.00,,,0.00,,2013-04-18 20:32:00,
2013-04-18 13:42:00,49.0,43.0,30.41,ESE,122,6.0,11.0,79,0.00,,,0.00,,2013-04-18 20:42:00,
2013-04-18 13:52:00,49.0,43.0,30.41,ESE,122,6.0,11.0,79,0.00,,,0.00,,2013-04-18 20:52:00,
2013-04-18 14:02:00,49.0,43.0,30.41,ESE,122,6.0,11.0,79,0.00,,,0.00,,2013-04-18 21:02:00,
2013-04-18 14:12:00,49.0,43.0,30.41,ESE,122,6.0,11.0,79,0.00,,,0.00,,2013-04-18 21:12:00,
2013-04-18 14:21:00,50.0,43.0,30.40,South,181,5.0,11.0,78,0.00,,,0.00,,2013-04-18 21:21:00,
2013-04-18 14:32:00,50.0,43.0,30.40,South,181,5.0,11.0,78,0.00,,,0.00,,2013-04-18 21:32:00,
2013-04-18 14:43:00,49.0,44.0,30.40,SE,139,7.0,13.0,84,0.00,,,0.00,,2013-04-18 21:43:00,
2013-04-18 14:53:00,49.0,44.0,30.40,SE,139,7.0,13.0,84,0.00,,,0.00,,2013-04-18 21:53:00,
2013-04-18 15:02:00,49.0,44.0,30.40,SE,139,7.0,13.0,84,0.00,,,0.00,,2013-04-18 22:02:00,
2013-04-18 15:12:00,49.0,45.0,30.39,South,188,5.0,14.0,86,0.01,,,0.01,,2013-04-18 22:12:00,
2013-04-18 15:22:00,49.0,45.0,30.39,South,188,5.0,14.0,86,0.01,,,0.01,,2013-04-18 22:22:00,
2013-04-18 15:32:00,49.0,45.0,30.39,South,188,5.0,14.0,86,0.01,,,0.01,,2013-04-18 22:32:00,
2013-04-18 15:42:00,49.0,46.0,30.37,South,191,5.0,11.0,88,0.02,,,0.02,,2013-04-18 22:42:00,
2013-04-18 15:52:00,49.0,46.0,30.37,South,191,5.0,11.0,88,0.02,,,0.02,,2013-04-18 22:52:00,
2013-04-18 16:03:00,49.0,46.0,30.37,South,191,5.0,11.0,88,0.02,,,0.02,,2013-04-18 23:03:00,
2013-04-18 16:11:00,49.0,46.0,30.36,SSW,204,4.0,10.0,89,0.03,,,0.04,,2013-04-18 23:11:00,
2013-04-18 16:21:00,49.0,46.0,30.36,SSW,204,4.0,10.0,89,0.03,,,0.04,,2013-04-18 23:21:00,
2013-04-18 16:32:00,49.0,46.0,30.36,SSW,204,4.0,10.0,89,0.03,,,0.04,,2013-04-18 23:32:00,
2013-04-18 16:42:00,48.0,45.0,30.35,South,169,4.0,8.0,91,0.05,,,0.07,,2013-04-18 23:42:00,
2013-04-18 16:52:00,48.0,45.0,30.35,South,169,4.0,8.0,91,0.05,,,0.07,,2013-04-18 23:52:00,
2013-04-18 17:01:00,48.0,45.0,30.35,South,169,4.0,8.0,91,0.05,,,0.07,,2013-04-19 00:01:00,
2013-04-18 17:12:00,48.0,45.0,30.35,South,169,4.0,8.0,91,0.05,,,0.07,,2013-04-19 00:12:00,
2013-04-18 17:21:00,48.0,45.0,30.34,SSW,205,7.0,13.0,91,0.05,,,0.09,,2013-04-19 00:21:00,
2013-04-18 17:31:00,48.0,45.0,30.34,SSW,205,7.0,13.0,91,0.05,,,0.09,,2013-04-19 00:31:00,
2013-04-18 17:42:00,48.0,45.0,30.34,SSW,205,7.0,13.0,91,0.05,,,0.09,,2013-04-19 00:42:00,
2013-04-18 17:51:00,48.0,45.0,30.33,WSW,255,6.0,15.0,91,0.04,,,0.11,,2013-04-19 00:51:00,
2013-04-18 18:01:00,48.0,45.0,30.33,WSW,255,6.0,15.0,91,0.04,,,0.11,,2013-04-19 01:01:00,
2013-04-18 18:11:00,48.0,45.0,30.33,WSW,255,6.0,15.0,91,0.04,,,0.11,,2013-04-19 01:11:00,
2013-04-18 18:21:00,48.0,45.0,30.33,SSW,205,7.0,13.0,91,0.02,,,0.12,,2013-04-19 01:21:00,
2013-04-18 18:31:00,48.0,45.0,30.33,SSW,205,7.0,13.0,91,0.02,,,0.12,,2013-04-19 01:31:00,
2013-04-18 18:42:00,48.0,45.0,30.33,SSW,205,7.0,13.0,91,0.02,,,0.12,,2013-04-19 01:42:00,
2013-04-18 18:52:00,49.0,46.0,30.32,SSW,204,8.0,18.0,91,0.02,,,0.13,,2013-04-19 01:52:00,
2013-04-18 19:01:00,49.0,46.0,30.32,SSW,204,8.0,18.0,91,0.02,,,0.13,,2013-04-19 02:01:00,
2013-04-18 19:11:00,49.0,46.0,30.32,SSW,204,8.0,18.0,91,0.02,,,0.13,,2013-04-19 02:11:00,
2013-04-18 19:21:00,49.0,47.0,30.30,SSE,163,8.0,15.0,92,0.01,,,0.13,,2013-04-19 02:21:00,
2013-04-18 19:31:00,49.0,47.0,30.30,SSE,163,8.0,15.0,92,0.01,,,0.13,,2013-04-19 02:31:00,
2013-04-18 19:42:00,49.0,47.0,30.30,SSE,163,8.0,15.0,92,0.01,,,0.13,,2013-04-19 02:42:00,
2013-04-18 19:52:00,49.0,47.0,30.29,SSE,162,12.0,19.0,92,0.01,,,0.14,,2013-04-19 02:52:00,
2013-04-18 20:01:00,49.0,47.0,30.29,SSE,162,12.0,19.0,92,0.01,,,0.14,,2013-04-19 03:01:00,
2013-04-18 20:11:00,49.0,47.0,30.29,SSE,162,12.0,19.0,92,0.01,,,0.14,,2013-04-19 03:11:00,
2013-04-18 20:21:00,49.0,47.0,30.28,NNW,329,7.0,21.0,93,0.01,,,0.14,,2013-04-19 03:21:00,
2013-04-18 20:32:00,49.0,47.0,30.28,NNW,329,7.0,21.0,93,0.01,,,0.14,,2013-04-19 03:32:00,
2013-04-18 20:43:00,49.0,47.0,30.28,NNW,329,7.0,21.0,93,0.01,,,0.14,,2013-04-19 03:43:00,
2013-04-18 20:53:00,49.0,47.0,30.27,SSW,205,11.0,18.0,93,0.00,,,0.14,,2013-04-19 03:53:00,
2013-04-18 21:03:00,49.0,47.0,30.27,SSW,205,11.0,18.0,93,0.00,,,0.14,,2013-04-19 04:03:00,
2013-04-18 21:12:00,49.0,47.0,30.27,SSW,205,11.0,18.0,93,0.00,,,0.14,,2013-04-19 04:12:00,
2013-04-18 21:23:00,48.0,46.0,30.27,SSW,193,11.0,18.0,94,0.00,,,0.14,,2013-04-19 04:23:00,
2013-04-18 21:32:00,48.0,46.0,30.27,SSW,193,11.0,18.0,94,0.00,,,0.14,,2013-04-19 04:32:00,
2013-04-18 21:43:00,48.0,47.0,30.27,SSE,162,10.0,18.0,95,0.00,,,0.14,,2013-04-19 04:43:00,
2013-04-18 21:52:00,48.0,47.0,30.27,SSE,162,10.0,18.0,95,0.00,,,0.14,,2013-04-19 04:52:00,
2013-04-18 22:02:00,48.0,47.0,30.27,SSE,162,10.0,18.0,95,0.00,,,0.14,,2013-04-19 05:02:00,
2013-04-18 22:11:00,48.0,47.0,30.27,SSE,162,10.0,18.0,95,0.00,,,0.14,,2013-04-19 05:11:00,
2013-04-18 22:22:00,48.0,47.0,30.26,WSW,248,9.0,19.0,95,0.01,,,0.15,,2013-04-19 05:22:00,
2013-04-18 22:31:00,48.0,47.0,30.26,WSW,248,9.0,19.0,95,0.01,,,0.15,,2013-04-19 05:31:00,
2013-04-18 22:42:00,48.0,47.0,30.26,WSW,248,9.0,19.0,95,0.01,,,0.15,,2013-04-19 05:42:00,
2013-04-18 22:52:00,49.0,47.0,30.24,SW,214,13.0,20.0,93,0.01,,,0.15,,2013-04-19 05:52:00,
2013-04-18 23:01:00,49.0,47.0,30.24,SW,214,13.0,20.0,93,0.01,,,0.15,,2013-04-19 06:01:00,
2013-04-18 23:11:00,49.0,47.0,30.24,SW,214,13.0,20.0,93,0.01,,,0.15,,2013-04-19 06:11:00,
2013-04-18 23:22:00,48.0,46.0,30.23,SW,225,9.0,20.0,94,0.00,,,0.15,,2013-04-19 06:22:00,
2013-04-18 23:31:00,48.0,46.0,30.23,SW,225,9.0,20.0,94,0.00,,,0.15,,2013-04-19 06:31:00,
2013-04-18 23:42:00,48.0,46.0,30.23,SW,225,9.0,20.0,94,0.00,,,0.15,,2013-04-19 06:42:00,
2013-04-18 23:52:00,48.0,46.0,30.23,SW,225,9.0,20.0,94,0.00,,,0.15,,2013-04-19 06:52:00,